sensor_id;sensor_type;location;lat;lon;timestamp;pressure;altitude;pressure_sealevel;temperature;humidity
13029;BME280;6581;42.662;23.402;2023-03-19T00:00:25;95908.72;;;2.43;79.00
13029;BME280;6581;42.662;23.402;2023-03-19T00:02:54;95895.78;;;2.38;78.90
13029;BME280;6581;42.662;23.402;2023-03-19T00:05:20;95898.38;;;2.38;78.02
13029;BME280;6581;42.662;23.402;2023-03-19T00:08:12;95897.69;;;2.33;78.44
13029;BME280;6581;42.662;23.402;2023-03-19T00:10:39;95897.97;;;2.31;79.25
13029;BME280;6581;42.662;23.402;2023-03-19T00:13:06;95896.25;;;2.40;78.89
13029;BME280;6581;42.662;23.402;2023-03-19T00:15:34;95901.97;;;2.42;78.01
13029;BME280;6581;42.662;23.402;2023-03-19T00:18:03;95891.19;;;2.44;77.39
13029;BME280;6581;42.662;23.402;2023-03-19T00:20:30;95890.41;;;2.43;77.28
13029;BME280;6581;42.662;23.402;2023-03-19T00:23:22;95888.13;;;2.28;77.29
13029;BME280;6581;42.662;23.402;2023-03-19T00:25:50;95884.91;;;2.17;78.19
13029;BME280;6581;42.662;23.402;2023-03-19T00:28:19;95885.47;;;2.14;77.91
13029;BME280;6581;42.662;23.402;2023-03-19T00:30:47;95883.81;;;2.05;77.91
13029;BME280;6581;42.662;23.402;2023-03-19T00:33:15;95881.03;;;2.15;77.79
13029;BME280;6581;42.662;23.402;2023-03-19T00:35:44;95872.50;;;2.09;77.72
13029;BME280;6581;42.662;23.402;2023-03-19T00:38:12;95868.72;;;2.15;78.08
13029;BME280;6581;42.662;23.402;2023-03-19T00:40:39;95870.38;;;2.25;77.68
13029;BME280;6581;42.662;23.402;2023-03-19T00:43:08;95872.78;;;2.08;75.71
13029;BME280;6581;42.662;23.402;2023-03-19T00:45:35;95869.69;;;2.06;76.80
13029;BME280;6581;42.662;23.402;2023-03-19T00:48:02;95860.19;;;1.96;76.69
13029;BME280;6581;42.662;23.402;2023-03-19T00:50:30;95859.41;;;1.96;76.08
13029;BME280;6581;42.662;23.402;2023-03-19T00:52:58;95861.84;;;1.92;75.61
13029;BME280;6581;42.662;23.402;2023-03-19T00:55:26;95855.34;;;1.90;78.98
13029;BME280;6581;42.662;23.402;2023-03-19T00:57:53;95864.66;;;1.96;79.96
13029;BME280;6581;42.662;23.402;2023-03-19T01:00:21;95862.59;;;1.93;80.11
13029;BME280;6581;42.662;23.402;2023-03-19T01:02:48;95861.16;;;2.00;79.46
13029;BME280;6581;42.662;23.402;2023-03-19T01:05:15;95860.31;;;2.05;78.81
13029;BME280;6581;42.662;23.402;2023-03-19T01:07:44;95857.97;;;2.03;79.90
13029;BME280;6581;42.662;23.402;2023-03-19T01:10:11;95861.88;;;2.06;80.42
13029;BME280;6581;42.662;23.402;2023-03-19T01:13:04;95855.56;;;2.07;78.65
13029;BME280;6581;42.662;23.402;2023-03-19T01:15:34;95855.25;;;2.08;78.41
13029;BME280;6581;42.662;23.402;2023-03-19T01:18:01;95854.47;;;1.94;78.45
13029;BME280;6581;42.662;23.402;2023-03-19T01:20:28;95855.81;;;1.78;78.52
13029;BME280;6581;42.662;23.402;2023-03-19T01:22:57;95850.66;;;1.73;80.73
13029;BME280;6581;42.662;23.402;2023-03-19T01:25:24;95849.13;;;1.72;82.69
13029;BME280;6581;42.662;23.402;2023-03-19T01:28:01;95850.94;;;1.71;83.73
13029;BME280;6581;42.662;23.402;2023-03-19T01:30:28;95851.88;;;1.62;82.96
13029;BME280;6581;42.662;23.402;2023-03-19T01:33:14;95845.78;;;1.53;83.69
13029;BME280;6581;42.662;23.402;2023-03-19T01:35:52;95843.69;;;1.68;83.18
13029;BME280;6581;42.662;23.402;2023-03-19T01:38:23;95845.72;;;1.71;83.49
13029;BME280;6581;42.662;23.402;2023-03-19T01:40:52;95847.28;;;1.72;83.10
13029;BME280;6581;42.662;23.402;2023-03-19T01:43:21;95839.44;;;1.72;83.28
13029;BME280;6581;42.662;23.402;2023-03-19T01:46:15;95839.38;;;1.77;83.14
13029;BME280;6581;42.662;23.402;2023-03-19T01:48:57;95845.28;;;1.83;82.71
13029;BME280;6581;42.662;23.402;2023-03-19T01:51:28;95845.28;;;1.83;80.86
13029;BME280;6581;42.662;23.402;2023-03-19T01:54:20;95843.22;;;1.80;79.67
13029;BME280;6581;42.662;23.402;2023-03-19T01:57:27;95850.72;;;1.54;82.08
13029;BME280;6581;42.662;23.402;2023-03-19T02:00:14;95847.31;;;1.54;82.11
13029;BME280;6581;42.662;23.402;2023-03-19T02:02:46;95844.78;;;1.49;82.63
13029;BME280;6581;42.662;23.402;2023-03-19T02:05:38;95849.75;;;1.50;82.54
13029;BME280;6581;42.662;23.402;2023-03-19T02:08:12;95854.53;;;1.43;83.52
13029;BME280;6581;42.662;23.402;2023-03-19T02:10:43;95853.63;;;1.34;84.45
13029;BME280;6581;42.662;23.402;2023-03-19T02:13:12;95855.47;;;1.33;85.49
13029;BME280;6581;42.662;23.402;2023-03-19T02:15:40;95856.75;;;1.36;85.86
13029;BME280;6581;42.662;23.402;2023-03-19T02:18:08;95852.25;;;1.23;86.70
13029;BME280;6581;42.662;23.402;2023-03-19T02:20:43;95852.88;;;1.15;87.33
13029;BME280;6581;42.662;23.402;2023-03-19T02:23:24;95849.91;;;1.21;87.82
13029;BME280;6581;42.662;23.402;2023-03-19T02:26:01;95853.19;;;1.13;88.17
13029;BME280;6581;42.662;23.402;2023-03-19T02:28:30;95853.19;;;1.13;88.48
13029;BME280;6581;42.662;23.402;2023-03-19T02:30:59;95864.16;;;1.10;88.65
13029;BME280;6581;42.662;23.402;2023-03-19T02:33:27;95852.53;;;1.03;89.16
13029;BME280;6581;42.662;23.402;2023-03-19T02:35:55;95858.53;;;1.03;89.46
13029;BME280;6581;42.662;23.402;2023-03-19T02:38:24;95861.13;;;1.03;88.84
13029;BME280;6581;42.662;23.402;2023-03-19T02:40:57;95865.09;;;1.01;89.02
13029;BME280;6581;42.662;23.402;2023-03-19T02:43:27;95853.31;;;1.03;88.75
13029;BME280;6581;42.662;23.402;2023-03-19T02:45:54;95853.44;;;0.93;89.53
13029;BME280;6581;42.662;23.402;2023-03-19T02:48:22;95850.72;;;1.03;89.07
13029;BME280;6581;42.662;23.402;2023-03-19T02:50:49;95846.19;;;1.09;89.21
13029;BME280;6581;42.662;23.402;2023-03-19T02:53:16;95845.34;;;0.95;89.37
13029;BME280;6581;42.662;23.402;2023-03-19T02:55:44;95852.25;;;0.85;89.45
13029;BME280;6581;42.662;23.402;2023-03-19T02:58:11;95855.19;;;0.79;90.11
13029;BME280;6581;42.662;23.402;2023-03-19T03:00:39;95856.44;;;0.86;90.40
13029;BME280;6581;42.662;23.402;2023-03-19T03:03:07;95863.69;;;0.89;90.24
13029;BME280;6581;42.662;23.402;2023-03-19T03:05:34;95857.09;;;0.73;90.32
13029;BME280;6581;42.662;23.402;2023-03-19T03:08:02;95861.72;;;0.81;89.95
13029;BME280;6581;42.662;23.402;2023-03-19T03:10:30;95860.41;;;0.79;91.28
13029;BME280;6581;42.662;23.402;2023-03-19T03:12:58;95871.16;;;0.77;92.10
13029;BME280;6581;42.662;23.402;2023-03-19T03:15:25;95854.50;;;0.73;92.82
13029;BME280;6581;42.662;23.402;2023-03-19T03:17:54;95866.47;;;0.74;92.85
13029;BME280;6581;42.662;23.402;2023-03-19T03:20:21;95874.09;;;0.71;93.06
13029;BME280;6581;42.662;23.402;2023-03-19T03:22:49;95872.53;;;0.70;92.72
13029;BME280;6581;42.662;23.402;2023-03-19T03:25:16;95882.69;;;0.71;92.23
13029;BME280;6581;42.662;23.402;2023-03-19T03:27:43;95880.44;;;0.83;92.10
13029;BME280;6581;42.662;23.402;2023-03-19T03:30:12;95881.22;;;0.84;91.46
13029;BME280;6581;42.662;23.402;2023-03-19T03:32:40;95874.25;;;0.79;91.40
13029;BME280;6581;42.662;23.402;2023-03-19T03:35:10;95886.28;;;0.75;91.36
13029;BME280;6581;42.662;23.402;2023-03-19T03:37:37;95880.03;;;0.76;92.02
13029;BME280;6581;42.662;23.402;2023-03-19T03:40:05;95884.72;;;0.74;92.21
13029;BME280;6581;42.662;23.402;2023-03-19T03:42:34;95880.75;;;0.82;92.00
13029;BME280;6581;42.662;23.402;2023-03-19T03:45:06;95890.66;;;0.80;91.88
13029;BME280;6581;42.662;23.402;2023-03-19T03:47:34;95900.16;;;0.71;92.02
13029;BME280;6581;42.662;23.402;2023-03-19T03:50:03;95904.53;;;0.75;91.80
13029;BME280;6581;42.662;23.402;2023-03-19T03:52:32;95897.63;;;0.66;91.99
13029;BME280;6581;42.662;23.402;2023-03-19T03:54:59;95891.63;;;0.65;92.79
13029;BME280;6581;42.662;23.402;2023-03-19T03:57:26;95896.13;;;0.60;92.82
13029;BME280;6581;42.662;23.402;2023-03-19T03:59:55;95899.19;;;0.67;93.00
13029;BME280;6581;42.662;23.402;2023-03-19T04:02:22;95892.06;;;0.72;92.96
13029;BME280;6581;42.662;23.402;2023-03-19T04:04:50;95891.84;;;0.69;93.67
13029;BME280;6581;42.662;23.402;2023-03-19T04:07:17;95881.91;;;0.71;94.18
13029;BME280;6581;42.662;23.402;2023-03-19T04:09:48;95883.31;;;0.63;95.05
13029;BME280;6581;42.662;23.402;2023-03-19T04:12:17;95887.19;;;0.66;95.43
13029;BME280;6581;42.662;23.402;2023-03-19T04:14:45;95887.97;;;0.66;95.40
13029;BME280;6581;42.662;23.402;2023-03-19T04:17:12;95890.25;;;0.73;94.99
13029;BME280;6581;42.662;23.402;2023-03-19T04:19:39;95890.72;;;0.75;95.08
13029;BME280;6581;42.662;23.402;2023-03-19T04:22:08;95880.41;;;0.65;95.43
13029;BME280;6581;42.662;23.402;2023-03-19T04:24:35;95884.94;;;0.59;95.54
13029;BME280;6581;42.662;23.402;2023-03-19T04:27:03;95890.22;;;0.54;96.09
13029;BME280;6581;42.662;23.402;2023-03-19T04:29:31;95894.13;;;0.52;95.84
13029;BME280;6581;42.662;23.402;2023-03-19T04:31:59;95901.94;;;0.52;95.21
13029;BME280;6581;42.662;23.402;2023-03-19T04:34:26;95904.41;;;0.43;95.73
13029;BME280;6581;42.662;23.402;2023-03-19T04:36:53;95898.09;;;0.49;95.44
13029;BME280;6581;42.662;23.402;2023-03-19T04:39:21;95901.13;;;0.56;94.83
13029;BME280;6581;42.662;23.402;2023-03-19T04:41:50;95908.88;;;0.61;94.32
13029;BME280;6581;42.662;23.402;2023-03-19T04:44:31;95893.28;;;0.56;94.27
13029;BME280;6581;42.662;23.402;2023-03-19T04:47:00;95902.16;;;0.55;94.77
13029;BME280;6581;42.662;23.402;2023-03-19T04:49:31;95895.84;;;0.61;94.48
13029;BME280;6581;42.662;23.402;2023-03-19T04:51:59;95898.06;;;0.73;94.49
13029;BME280;6581;42.662;23.402;2023-03-19T04:54:26;95889.91;;;0.56;94.24
13029;BME280;6581;42.662;23.402;2023-03-19T04:56:53;95901.56;;;0.39;95.60
13029;BME280;6581;42.662;23.402;2023-03-19T04:59:24;95900.75;;;0.44;96.03
13029;BME280;6581;42.662;23.402;2023-03-19T05:01:52;95895.47;;;0.49;96.08
13029;BME280;6581;42.662;23.402;2023-03-19T05:04:21;95906.69;;;0.50;95.71
13029;BME280;6581;42.662;23.402;2023-03-19T05:06:51;95905.22;;;0.38;96.91
13029;BME280;6581;42.662;23.402;2023-03-19T05:09:18;95897.41;;;0.38;97.37
13029;BME280;6581;42.662;23.402;2023-03-19T05:12:11;95898.56;;;0.51;97.50
13029;BME280;6581;42.662;23.402;2023-03-19T05:14:48;95896.78;;;0.47;98.00
13029;BME280;6581;42.662;23.402;2023-03-19T05:17:23;95900.28;;;0.61;97.46
13029;BME280;6581;42.662;23.402;2023-03-19T05:20:08;95911.09;;;0.73;97.17
13029;BME280;6581;42.662;23.402;2023-03-19T05:22:39;95905.06;;;0.77;96.84
13029;BME280;6581;42.662;23.402;2023-03-19T05:25:07;95913.75;;;0.92;96.71
13029;BME280;6581;42.662;23.402;2023-03-19T05:27:34;95918.41;;;0.95;96.21
13029;BME280;6581;42.662;23.402;2023-03-19T05:30:06;95909.38;;;0.87;95.76
13029;BME280;6581;42.662;23.402;2023-03-19T05:32:54;95906.97;;;0.91;96.30
13029;BME280;6581;42.662;23.402;2023-03-19T05:35:31;95916.69;;;0.85;96.74
13029;BME280;6581;42.662;23.402;2023-03-19T05:38:01;95910.22;;;0.82;96.75
13029;BME280;6581;42.662;23.402;2023-03-19T05:40:28;95903.38;;;0.86;97.25
13029;BME280;6581;42.662;23.402;2023-03-19T05:43:00;95912.25;;;0.85;95.92
13029;BME280;6581;42.662;23.402;2023-03-19T05:45:29;95908.97;;;0.75;96.27
13029;BME280;6581;42.662;23.402;2023-03-19T05:48:02;95912.31;;;0.80;96.39
13029;BME280;6581;42.662;23.402;2023-03-19T05:50:34;95912.25;;;0.85;95.75
13029;BME280;6581;42.662;23.402;2023-03-19T05:53:13;95912.91;;;0.96;94.74
13029;BME280;6581;42.662;23.402;2023-03-19T05:56:12;95905.22;;;1.05;95.14
13029;BME280;6581;42.662;23.402;2023-03-19T05:58:52;95903.38;;;1.05;93.64
13029;BME280;6581;42.662;23.402;2023-03-19T06:01:51;95913.25;;;1.08;92.78
13029;BME280;6581;42.662;23.402;2023-03-19T06:04:20;95913.47;;;1.12;92.74
13029;BME280;6581;42.662;23.402;2023-03-19T06:06:47;95914.38;;;1.21;92.10
13029;BME280;6581;42.662;23.402;2023-03-19T06:09:15;95914.72;;;1.33;91.78
13029;BME280;6581;42.662;23.402;2023-03-19T06:11:47;95903.34;;;1.43;91.40
13029;BME280;6581;42.662;23.402;2023-03-19T06:14:37;95911.56;;;1.55;89.25
13029;BME280;6581;42.662;23.402;2023-03-19T06:17:23;95905.56;;;1.54;89.92
13029;BME280;6581;42.662;23.402;2023-03-19T06:19:53;95910.25;;;1.71;89.29
13029;BME280;6581;42.662;23.402;2023-03-19T06:22:20;95919.63;;;1.72;89.27
13029;BME280;6581;42.662;23.402;2023-03-19T06:24:48;95915.91;;;1.78;88.24
13029;BME280;6581;42.662;23.402;2023-03-19T06:27:15;95922.00;;;1.87;87.50
13029;BME280;6581;42.662;23.402;2023-03-19T06:29:43;95916.31;;;1.99;87.20
13029;BME280;6581;42.662;23.402;2023-03-19T06:32:19;95920.41;;;2.05;85.28
13029;BME280;6581;42.662;23.402;2023-03-19T06:34:48;95916.34;;;2.12;84.12
13029;BME280;6581;42.662;23.402;2023-03-19T06:37:16;95927.97;;;2.20;84.09
13029;BME280;6581;42.662;23.402;2023-03-19T06:40:09;95924.72;;;2.28;84.53
13029;BME280;6581;42.662;23.402;2023-03-19T06:42:36;95925.09;;;2.35;82.59
13029;BME280;6581;42.662;23.402;2023-03-19T06:45:05;95935.28;;;2.50;82.67
13029;BME280;6581;42.662;23.402;2023-03-19T06:47:33;95930.53;;;2.52;82.28
13029;BME280;6581;42.662;23.402;2023-03-19T06:50:00;95935.38;;;2.59;80.91
13029;BME280;6581;42.662;23.402;2023-03-19T06:52:29;95942.00;;;2.70;80.80
13029;BME280;6581;42.662;23.402;2023-03-19T06:54:56;95942.63;;;2.76;79.62
13029;BME280;6581;42.662;23.402;2023-03-19T06:57:23;95944.28;;;2.85;78.98
13029;BME280;6581;42.662;23.402;2023-03-19T06:59:50;95941.88;;;3.02;79.10
13029;BME280;6581;42.662;23.402;2023-03-19T07:02:17;95946.00;;;3.17;78.89
13029;BME280;6581;42.662;23.402;2023-03-19T07:04:44;95938.44;;;3.29;78.11
13029;BME280;6581;42.662;23.402;2023-03-19T07:07:11;95944.19;;;3.40;76.91
13029;BME280;6581;42.662;23.402;2023-03-19T07:09:40;95946.44;;;3.46;76.15
13029;BME280;6581;42.662;23.402;2023-03-19T07:12:07;95944.94;;;3.54;76.68
13029;BME280;6581;42.662;23.402;2023-03-19T07:14:34;95950.56;;;3.61;75.33
13029;BME280;6581;42.662;23.402;2023-03-19T07:17:02;95952.63;;;3.73;74.65
13029;BME280;6581;42.662;23.402;2023-03-19T07:19:29;95950.75;;;3.87;74.55
13029;BME280;6581;42.662;23.402;2023-03-19T07:21:56;95951.34;;;3.84;73.56
13029;BME280;6581;42.662;23.402;2023-03-19T07:24:23;95945.25;;;3.97;73.44
13029;BME280;6581;42.662;23.402;2023-03-19T07:26:51;95943.19;;;4.08;72.17
13029;BME280;6581;42.662;23.402;2023-03-19T07:29:18;95942.44;;;4.16;71.21
13029;BME280;6581;42.662;23.402;2023-03-19T07:31:45;95941.72;;;4.24;71.81
13029;BME280;6581;42.662;23.402;2023-03-19T07:34:12;95937.91;;;4.30;71.52
13029;BME280;6581;42.662;23.402;2023-03-19T07:36:40;95938.06;;;4.33;72.00
13029;BME280;6581;42.662;23.402;2023-03-19T07:39:07;95938.75;;;4.47;72.45
13029;BME280;6581;42.662;23.402;2023-03-19T07:41:34;95938.47;;;4.49;70.98
13029;BME280;6581;42.662;23.402;2023-03-19T07:44:03;95939.38;;;4.44;70.01
13029;BME280;6581;42.662;23.402;2023-03-19T07:46:42;95946.97;;;4.63;68.82
13029;BME280;6581;42.662;23.402;2023-03-19T07:49:09;95942.06;;;4.62;68.32
13029;BME280;6581;42.662;23.402;2023-03-19T07:51:36;95940.25;;;4.71;69.27
13029;BME280;6581;42.662;23.402;2023-03-19T07:54:27;95943.06;;;4.91;68.85
13029;BME280;6581;42.662;23.402;2023-03-19T07:56:55;95943.28;;;5.04;68.97
13029;BME280;6581;42.662;23.402;2023-03-19T07:59:23;95933.09;;;5.11;69.74
13029;BME280;6581;42.662;23.402;2023-03-19T08:01:50;95927.06;;;5.19;70.71
13029;BME280;6581;42.662;23.402;2023-03-19T08:04:19;95932.03;;;5.20;68.25
13029;BME280;6581;42.662;23.402;2023-03-19T08:06:46;95936.34;;;5.33;66.42
13029;BME280;6581;42.662;23.402;2023-03-19T08:09:13;95938.84;;;5.30;67.10
13029;BME280;6581;42.662;23.402;2023-03-19T08:12:06;95936.06;;;5.44;67.63
13029;BME280;6581;42.662;23.402;2023-03-19T08:14:35;95933.75;;;5.51;66.89
13029;BME280;6581;42.662;23.402;2023-03-19T08:17:02;95927.72;;;5.59;64.78
13029;BME280;6581;42.662;23.402;2023-03-19T08:19:29;95931.13;;;5.68;66.27
13029;BME280;6581;42.662;23.402;2023-03-19T08:21:56;95928.94;;;5.78;65.31
13029;BME280;6581;42.662;23.402;2023-03-19T08:24:23;95932.69;;;5.95;64.76
13029;BME280;6581;42.662;23.402;2023-03-19T08:26:50;95932.66;;;6.03;63.35
13029;BME280;6581;42.662;23.402;2023-03-19T08:29:18;95928.81;;;6.09;63.83
13029;BME280;6581;42.662;23.402;2023-03-19T08:31:46;95927.38;;;6.20;63.70
13029;BME280;6581;42.662;23.402;2023-03-19T08:34:13;95934.00;;;6.35;62.10
13029;BME280;6581;42.662;23.402;2023-03-19T08:36:40;95920.47;;;6.54;60.42
13029;BME280;6581;42.662;23.402;2023-03-19T08:39:07;95924.31;;;6.56;59.30
13029;BME280;6581;42.662;23.402;2023-03-19T08:41:34;95925.53;;;6.67;58.62
13029;BME280;6581;42.662;23.402;2023-03-19T08:44:01;95917.81;;;6.92;57.30
13029;BME280;6581;42.662;23.402;2023-03-19T08:46:29;95914.66;;;6.98;55.81
13029;BME280;6581;42.662;23.402;2023-03-19T08:48:58;95913.91;;;6.98;54.07
13029;BME280;6581;42.662;23.402;2023-03-19T08:51:25;95910.13;;;7.07;55.51
13029;BME280;6581;42.662;23.402;2023-03-19T08:53:54;95912.16;;;7.31;54.34
13029;BME280;6581;42.662;23.402;2023-03-19T08:56:21;95904.56;;;7.50;54.83
13029;BME280;6581;42.662;23.402;2023-03-19T08:58:49;95901.88;;;7.59;52.96
13029;BME280;6581;42.662;23.402;2023-03-19T09:01:16;95901.78;;;7.68;51.93
13029;BME280;6581;42.662;23.402;2023-03-19T09:03:43;95885.56;;;7.78;50.78
13029;BME280;6581;42.662;23.402;2023-03-19T09:06:13;95892.81;;;8.01;49.52
13029;BME280;6581;42.662;23.402;2023-03-19T09:08:41;95885.09;;;8.09;46.12
13029;BME280;6581;42.662;23.402;2023-03-19T09:11:09;95881.97;;;8.27;46.61
13029;BME280;6581;42.662;23.402;2023-03-19T09:13:36;95881.28;;;8.18;44.49
13029;BME280;6581;42.662;23.402;2023-03-19T09:16:04;95870.63;;;8.27;43.01
13029;BME280;6581;42.662;23.402;2023-03-19T09:18:31;95876.72;;;8.39;43.00
13029;BME280;6581;42.662;23.402;2023-03-19T09:20:59;95874.53;;;8.54;42.86
13029;BME280;6581;42.662;23.402;2023-03-19T09:23:27;95877.94;;;8.66;43.17
13029;BME280;6581;42.662;23.402;2023-03-19T09:25:55;95875.97;;;8.87;43.23
13029;BME280;6581;42.662;23.402;2023-03-19T09:28:22;95869.69;;;8.92;42.67
13029;BME280;6581;42.662;23.402;2023-03-19T09:30:49;95870.44;;;9.05;41.87
13029;BME280;6581;42.662;23.402;2023-03-19T09:33:18;95866.03;;;9.21;42.18
13029;BME280;6581;42.662;23.402;2023-03-19T09:35:48;95864.22;;;9.37;42.61
13029;BME280;6581;42.662;23.402;2023-03-19T09:38:18;95861.03;;;9.31;43.19
13029;BME280;6581;42.662;23.402;2023-03-19T09:41:15;95863.84;;;9.51;43.77
13029;BME280;6581;42.662;23.402;2023-03-19T09:44:00;95864.16;;;9.49;43.03
13029;BME280;6581;42.662;23.402;2023-03-19T09:46:33;95860.41;;;9.50;42.62
13029;BME280;6581;42.662;23.402;2023-03-19T09:49:06;95863.75;;;9.47;41.93
13029;BME280;6581;42.662;23.402;2023-03-19T09:52:10;95861.72;;;9.56;42.19
13029;BME280;6581;42.662;23.402;2023-03-19T09:54:44;95857.50;;;9.67;42.04
13029;BME280;6581;42.662;23.402;2023-03-19T09:57:14;95848.69;;;9.91;41.92
13029;BME280;6581;42.662;23.402;2023-03-19T09:59:42;95846.47;;;9.93;41.25
13029;BME280;6581;42.662;23.402;2023-03-19T10:02:27;95842.03;;;10.13;41.57
13029;BME280;6581;42.662;23.402;2023-03-19T10:05:02;95842.59;;;10.18;41.29
13029;BME280;6581;42.662;23.402;2023-03-19T10:07:46;95837.56;;;10.29;40.52
13029;BME280;6581;42.662;23.402;2023-03-19T10:10:29;95840.22;;;10.45;40.83
13029;BME280;6581;42.662;23.402;2023-03-19T10:13:09;95831.34;;;10.53;41.82
13029;BME280;6581;42.662;23.402;2023-03-19T10:15:43;95824.22;;;10.57;40.92
13029;BME280;6581;42.662;23.402;2023-03-19T10:18:16;95821.28;;;10.78;40.93
13029;BME280;6581;42.662;23.402;2023-03-19T10:20:49;95820.50;;;10.93;41.15
13029;BME280;6581;42.662;23.402;2023-03-19T10:23:40;95812.19;;;10.94;40.61
13029;BME280;6581;42.662;23.402;2023-03-19T10:26:12;95817.91;;;10.96;38.98
13029;BME280;6581;42.662;23.402;2023-03-19T10:28:44;95803.22;;;10.99;39.20
13029;BME280;6581;42.662;23.402;2023-03-19T10:31:20;95794.28;;;11.07;40.44
13029;BME280;6581;42.662;23.402;2023-03-19T10:33:57;95791.50;;;11.19;39.17
13029;BME280;6581;42.662;23.402;2023-03-19T10:36:32;95792.16;;;11.32;40.82
13029;BME280;6581;42.662;23.402;2023-03-19T10:39:00;95792.06;;;11.47;39.46
13029;BME280;6581;42.662;23.402;2023-03-19T10:41:41;95787.78;;;11.62;39.57
13029;BME280;6581;42.662;23.402;2023-03-19T10:44:23;95788.06;;;11.76;40.27
13029;BME280;6581;42.662;23.402;2023-03-19T10:46:56;95782.53;;;11.85;39.21
13029;BME280;6581;42.662;23.402;2023-03-19T10:49:23;95771.44;;;12.02;38.50
13029;BME280;6581;42.662;23.402;2023-03-19T10:51:55;95771.81;;;12.01;37.74
13029;BME280;6581;42.662;23.402;2023-03-19T10:54:24;95762.38;;;12.03;37.92
13029;BME280;6581;42.662;23.402;2023-03-19T10:56:54;95759.81;;;12.10;37.53
13029;BME280;6581;42.662;23.402;2023-03-19T10:59:25;95762.47;;;12.10;37.26
13029;BME280;6581;42.662;23.402;2023-03-19T11:01:57;95755.44;;;12.21;37.69
13029;BME280;6581;42.662;23.402;2023-03-19T11:04:25;95750.13;;;12.21;36.70
13029;BME280;6581;42.662;23.402;2023-03-19T11:06:55;95741.53;;;12.28;36.93
13029;BME280;6581;42.662;23.402;2023-03-19T11:09:32;95741.41;;;12.47;37.49
13029;BME280;6581;42.662;23.402;2023-03-19T11:12:06;95737.34;;;12.53;36.93
13029;BME280;6581;42.662;23.402;2023-03-19T11:14:37;95728.69;;;12.60;36.66
13029;BME280;6581;42.662;23.402;2023-03-19T11:17:16;95717.19;;;12.52;36.47
13029;BME280;6581;42.662;23.402;2023-03-19T11:20:17;95713.47;;;12.57;37.05
13029;BME280;6581;42.662;23.402;2023-03-19T11:22:45;95706.56;;;12.52;36.68
13029;BME280;6581;42.662;23.402;2023-03-19T11:25:17;95707.78;;;12.58;37.02
13029;BME280;6581;42.662;23.402;2023-03-19T11:27:57;95693.44;;;12.63;36.66
13029;BME280;6581;42.662;23.402;2023-03-19T11:30:32;95692.53;;;12.81;37.30
13029;BME280;6581;42.662;23.402;2023-03-19T11:33:24;95687.34;;;12.92;36.56
13029;BME280;6581;42.662;23.402;2023-03-19T11:36:06;95693.09;;;12.98;37.02
13029;BME280;6581;42.662;23.402;2023-03-19T11:38:46;95686.25;;;12.97;37.05
13029;BME280;6581;42.662;23.402;2023-03-19T11:41:29;95679.44;;;12.99;35.98
13029;BME280;6581;42.662;23.402;2023-03-19T11:44:04;95673.47;;;13.09;36.89
13029;BME280;6581;42.662;23.402;2023-03-19T11:46:41;95670.94;;;13.20;36.91
13029;BME280;6581;42.662;23.402;2023-03-19T11:49:25;95665.41;;;13.36;36.42
13029;BME280;6581;42.662;23.402;2023-03-19T11:51:58;95666.28;;;13.47;35.83
13029;BME280;6581;42.662;23.402;2023-03-19T11:54:36;95659.56;;;13.60;37.31
13029;BME280;6581;42.662;23.402;2023-03-19T11:57:08;95652.03;;;13.65;35.95
13029;BME280;6581;42.662;23.402;2023-03-19T11:59:54;95646.78;;;13.80;35.64
13029;BME280;6581;42.662;23.402;2023-03-19T12:02:37;95645.72;;;13.88;35.63
13029;BME280;6581;42.662;23.402;2023-03-19T12:05:17;95640.91;;;14.07;36.14
13029;BME280;6581;42.662;23.402;2023-03-19T12:07:54;95644.00;;;14.13;34.86
13029;BME280;6581;42.662;23.402;2023-03-19T12:10:31;95644.09;;;14.27;34.64
13029;BME280;6581;42.662;23.402;2023-03-19T12:13:09;95633.06;;;14.29;34.96
13029;BME280;6581;42.662;23.402;2023-03-19T12:15:47;95630.88;;;14.45;34.66
13029;BME280;6581;42.662;23.402;2023-03-19T12:18:30;95634.72;;;14.51;34.47
13029;BME280;6581;42.662;23.402;2023-03-19T12:21:08;95626.75;;;14.58;34.35
13029;BME280;6581;42.662;23.402;2023-03-19T12:23:46;95625.63;;;14.62;33.57
13029;BME280;6581;42.662;23.402;2023-03-19T12:26:23;95625.31;;;14.75;33.53
13029;BME280;6581;42.662;23.402;2023-03-19T12:28:57;95621.94;;;14.85;34.30
13029;BME280;6581;42.662;23.402;2023-03-19T12:34:45;95621.53;;;14.86;33.67
13029;BME280;6581;42.662;23.402;2023-03-19T12:37:18;95607.47;;;14.93;33.48
13029;BME280;6581;42.662;23.402;2023-03-19T12:40:04;95604.00;;;14.82;32.80
13029;BME280;6581;42.662;23.402;2023-03-19T12:42:37;95593.75;;;14.94;33.17
13029;BME280;6581;42.662;23.402;2023-03-19T12:45:19;95600.28;;;15.15;33.71
13029;BME280;6581;42.662;23.402;2023-03-19T12:47:51;95604.84;;;15.18;34.13
13029;BME280;6581;42.662;23.402;2023-03-19T12:50:23;95606.38;;;15.12;33.05
13029;BME280;6581;42.662;23.402;2023-03-19T12:52:54;95602.91;;;15.00;33.08
13029;BME280;6581;42.662;23.402;2023-03-19T12:55:30;95599.88;;;15.05;32.82
13029;BME280;6581;42.662;23.402;2023-03-19T12:58:04;95594.13;;;15.00;33.20
13029;BME280;6581;42.662;23.402;2023-03-19T13:00:35;95597.22;;;15.13;32.74
13029;BME280;6581;42.662;23.402;2023-03-19T13:03:08;95590.38;;;15.15;33.27
13029;BME280;6581;42.662;23.402;2023-03-19T13:05:43;95590.00;;;15.20;33.11
13029;BME280;6581;42.662;23.402;2023-03-19T13:08:14;95578.94;;;15.22;33.38
13029;BME280;6581;42.662;23.402;2023-03-19T13:10:43;95582.75;;;15.24;33.15
13029;BME280;6581;42.662;23.402;2023-03-19T13:13:24;95581.22;;;15.44;33.60
13029;BME280;6581;42.662;23.402;2023-03-19T13:15:56;95583.97;;;15.62;33.04
13029;BME280;6581;42.662;23.402;2023-03-19T13:18:34;95578.59;;;15.69;33.10
13029;BME280;6581;42.662;23.402;2023-03-19T13:21:16;95577.09;;;15.72;32.57
13029;BME280;6581;42.662;23.402;2023-03-19T13:23:49;95570.59;;;15.73;33.73
13029;BME280;6581;42.662;23.402;2023-03-19T13:26:17;95570.22;;;15.85;32.63
13029;BME280;6581;42.662;23.402;2023-03-19T13:28:59;95568.31;;;15.85;32.42
13029;BME280;6581;42.662;23.402;2023-03-19T13:31:31;95566.00;;;15.87;33.32
13029;BME280;6581;42.662;23.402;2023-03-19T13:34:01;95561.03;;;15.86;32.97
13029;BME280;6581;42.662;23.402;2023-03-19T13:36:34;95549.97;;;15.84;32.46